Time;durP1;ratioP1;P1;durP2;ratioP2;P2;SDS_P1;SDS_P2;PMS_P1;PMS_P2;Temp;Humidity;BMP_temperature;BMP_pressure;BME280_temperature;BME280_humidity;BME280_pressure;Samples;Min_cycle;Max_cycle;Signal;HPM_P1;HPM_P2
2021/09/04 00:01:44;;;;;;;8.30;4.70;;;;;;;;;;5095200;28;20028;-72
2021/09/04 00:04:10;;;;;;;8.40;4.70;;;;;;;;;;5095391;28;20032;-73
2021/09/04 00:06:36;;;;;;;7.90;5.70;;;;;;;;;;5094981;28;20032;-72
2021/09/04 00:09:03;;;;;;;12.00;5.13;;;;;;;;;;5094715;28;20044;-73
2021/09/04 00:11:29;;;;;;;10.93;4.93;;;;;;;;;;5095277;28;20032;-72
2021/09/04 00:13:55;;;;;;;8.70;4.90;;;;;;;;;;5095027;28;20130;-72
2021/09/04 00:16:21;;;;;;;8.40;5.20;;;;;;;;;;5094995;28;20089;-72
2021/09/04 00:18:47;;;;;;;10.27;5.15;;;;;;;;;;5094907;28;20450;-73
2021/09/04 00:21:13;;;;;;;9.63;5.13;;;;;;;;;;5094844;28;20029;-73
2021/09/04 00:23:39;;;;;;;10.45;5.35;;;;;;;;;;5094686;28;20481;-72
2021/09/04 00:26:05;;;;;;;11.48;4.90;;;;;;;;;;5080164;28;20123;-72
2021/09/04 00:28:31;;;;;;;9.70;5.00;;;;;;;;;;5074517;28;20063;-72
2021/09/04 00:30:57;;;;;;;9.57;4.63;;;;;;;;;;5074463;28;20024;-73
2021/09/04 00:33:23;;;;;;;7.07;4.82;;;;;;;;;;5074508;28;20036;-73
2021/09/04 00:35:49;;;;;;;8.88;4.80;;;;;;;;;;5074516;28;20043;-72
2021/09/04 00:38:15;;;;;;;10.07;5.03;;;;;;;;;;5074156;28;20029;-72
2021/09/04 00:40:41;;;;;;;6.72;5.15;;;;;;;;;;5074170;28;20115;-72
2021/09/04 00:43:07;;;;;;;8.23;4.90;;;;;;;;;;5074332;28;20061;-71
2021/09/04 00:45:33;;;;;;;7.28;4.63;;;;;;;;;;5074163;28;20036;-73
2021/09/04 00:48:02;;;;;;;7.97;4.90;;;;;;;;;;5074149;28;20036;-71
2021/09/04 00:50:29;;;;;;;6.43;4.53;;;;;;;;;;5074182;28;20032;-72
2021/09/04 00:52:55;;;;;;;7.75;4.60;;;;;;;;;;5073985;28;20485;-72
2021/09/04 00:55:21;;;;;;;9.38;5.07;;;;;;;;;;5074109;28;20033;-72
2021/09/04 00:57:47;;;;;;;13.10;5.03;;;;;;;;;;5073167;28;20037;-72
2021/09/04 01:00:13;;;;;;;7.07;4.70;;;;;;;;;;5071321;28;20045;-72
2021/09/04 01:02:39;;;;;;;6.18;4.60;;;;;;;;;;5071042;28;20032;-72
2021/09/04 01:05:06;;;;;;;5.90;4.55;;;;;;;;;;5071403;28;20039;-72
2021/09/04 01:07:33;;;;;;;7.50;4.70;;;;;;;;;;5073577;28;20048;-72
2021/09/04 01:09:59;;;;;;;6.93;4.78;;;;;;;;;;5073830;28;20086;-72
2021/09/04 01:12:25;;;;;;;11.77;5.00;;;;;;;;;;5073416;28;20036;-72
2021/09/04 01:14:51;;;;;;;7.40;4.68;;;;;;;;;;5073534;28;20044;-72
2021/09/04 01:17:17;;;;;;;8.50;4.90;;;;;;;;;;5073542;28;20033;-71
2021/09/04 01:19:43;;;;;;;6.57;5.13;;;;;;;;;;5073032;28;20037;-72
2021/09/04 01:22:09;;;;;;;5.93;4.53;;;;;;;;;;5072888;28;20044;-72
2021/09/04 01:24:35;;;;;;;5.30;4.50;;;;;;;;;;5075076;28;20032;-72
2021/09/04 01:27:02;;;;;;;5.70;4.95;;;;;;;;;;5093673;28;20036;-72
2021/09/04 01:29:28;;;;;;;5.68;4.90;;;;;;;;;;5093188;28;20071;-72
2021/09/04 01:31:54;;;;;;;8.68;4.85;;;;;;;;;;5093231;28;20036;-72
2021/09/04 01:34:20;;;;;;;8.95;5.40;;;;;;;;;;5093464;28;20032;-72
2021/09/04 01:36:46;;;;;;;12.68;4.90;;;;;;;;;;5092996;28;20039;-72
2021/09/04 01:39:12;;;;;;;8.65;5.38;;;;;;;;;;5092954;28;20528;-72
2021/09/04 01:41:40;;;;;;;7.80;5.15;;;;;;;;;;5093547;28;20040;-72
2021/09/04 01:44:06;;;;;;;7.10;5.18;;;;;;;;;;5093176;28;20031;-72
2021/09/04 01:46:34;;;;;;;8.18;5.47;;;;;;;;;;5093561;28;20032;-71
2021/09/04 01:49:00;;;;;;;6.93;5.32;;;;;;;;;;5093141;28;20032;-71
2021/09/04 01:51:26;;;;;;;10.18;5.07;;;;;;;;;;5092854;28;20040;-72
2021/09/04 01:53:52;;;;;;;9.57;5.13;;;;;;;;;;5074950;28;20043;-74
2021/09/04 01:56:18;;;;;;;8.40;5.10;;;;;;;;;;5092955;28;20110;-72
2021/09/04 01:58:45;;;;;;;9.65;5.88;;;;;;;;;;5092682;28;20314;-72
2021/09/04 02:01:11;;;;;;;6.60;5.55;;;;;;;;;;5093015;28;20043;-73
2021/09/04 02:03:37;;;;;;;6.18;4.88;;;;;;;;;;5093121;28;20111;-72
2021/09/04 02:06:04;;;;;;;10.02;5.50;;;;;;;;;;5092877;28;20044;-74
2021/09/04 02:08:30;;;;;;;11.02;5.30;;;;;;;;;;5093161;28;20035;-72
2021/09/04 02:10:56;;;;;;;6.93;4.97;;;;;;;;;;5092894;28;20504;-70
2021/09/04 02:13:22;;;;;;;11.52;5.22;;;;;;;;;;5092891;28;20514;-72
2021/09/04 02:15:48;;;;;;;9.10;5.60;;;;;;;;;;5092557;28;20472;-70
2021/09/04 02:18:14;;;;;;;7.45;5.18;;;;;;;;;;5092270;28;20036;-70
2021/09/04 02:20:40;;;;;;;6.63;4.95;;;;;;;;;;5093165;28;20501;-70
2021/09/04 02:23:06;;;;;;;8.52;5.20;;;;;;;;;;5075095;28;20408;-82
2021/09/04 02:25:32;;;;;;;6.82;4.75;;;;;;;;;;5092828;28;20052;-71
2021/09/04 02:27:58;;;;;;;7.38;5.20;;;;;;;;;;5092771;28;20097;-70
2021/09/04 02:30:24;;;;;;;10.30;5.32;;;;;;;;;;5092552;28;20031;-81
2021/09/04 02:32:50;;;;;;;12.38;5.05;;;;;;;;;;5092413;28;20067;-70
2021/09/04 02:35:16;;;;;;;7.65;5.25;;;;;;;;;;5092686;28;20060;-71
2021/09/04 02:37:42;;;;;;;10.10;5.13;;;;;;;;;;5092922;28;20040;-69
2021/09/04 02:40:08;;;;;;;8.60;5.22;;;;;;;;;;5092582;28;20677;-70
2021/09/04 02:42:34;;;;;;;8.48;5.20;;;;;;;;;;5092174;28;20500;-81
2021/09/04 02:45:00;;;;;;;7.72;4.68;;;;;;;;;;5092368;28;20125;-70
2021/09/04 02:47:26;;;;;;;7.45;4.55;;;;;;;;;;5092124;28;20511;-70
2021/09/04 02:49:52;;;;;;;9.05;4.90;;;;;;;;;;5092312;28;20040;-73
2021/09/04 02:52:18;;;;;;;6.82;4.78;;;;;;;;;;5092624;28;20028;-70
2021/09/04 02:54:44;;;;;;;6.28;5.03;;;;;;;;;;5092342;28;20063;-70
2021/09/04 02:57:10;;;;;;;7.93;4.97;;;;;;;;;;5092442;28;20035;-70
2021/09/04 02:59:36;;;;;;;13.68;6.10;;;;;;;;;;5092060;28;20101;-82
2021/09/04 03:02:02;;;;;;;6.82;5.20;;;;;;;;;;5092338;28;20032;-70
2021/09/04 03:04:28;;;;;;;9.95;5.20;;;;;;;;;;5092418;28;20036;-70
2021/09/04 03:06:54;;;;;;;7.78;5.03;;;;;;;;;;5092265;28;20028;-81
2021/09/04 03:09:20;;;;;;;5.95;5.10;;;;;;;;;;5092420;28;20032;-69
2021/09/04 03:11:47;;;;;;;8.90;4.70;;;;;;;;;;5092356;28;20028;-70
2021/09/04 03:14:13;;;;;;;9.85;4.80;;;;;;;;;;5092467;28;20063;-70
2021/09/04 03:16:39;;;;;;;7.55;4.75;;;;;;;;;;5092130;28;20035;-70
2021/09/04 03:19:05;;;;;;;7.47;4.75;;;;;;;;;;5092457;28;20048;-70
2021/09/04 03:21:31;;;;;;;6.57;4.85;;;;;;;;;;5092306;28;20473;-70
2021/09/04 03:23:57;;;;;;;7.10;4.78;;;;;;;;;;5092326;28;20054;-81
2021/09/04 03:26:23;;;;;;;6.90;4.90;;;;;;;;;;5091545;28;20047;-70
2021/09/04 03:28:49;;;;;;;6.28;4.78;;;;;;;;;;5093428;28;20157;-70
2021/09/04 03:31:15;;;;;;;6.78;4.28;;;;;;;;;;5095769;28;20025;-81
2021/09/04 03:33:41;;;;;;;5.95;4.47;;;;;;;;;;5095795;28;20038;-71
2021/09/04 03:36:07;;;;;;;7.20;4.35;;;;;;;;;;5095990;28;20103;-70
2021/09/04 03:38:33;;;;;;;5.60;4.05;;;;;;;;;;5095708;28;20395;-81
2021/09/04 03:40:59;;;;;;;6.72;4.90;;;;;;;;;;5095501;28;20032;-70
2021/09/04 03:43:25;;;;;;;7.28;4.65;;;;;;;;;;5095658;28;20116;-70
2021/09/04 03:45:51;;;;;;;5.82;4.50;;;;;;;;;;5095641;28;20072;-70
2021/09/04 03:48:17;;;;;;;7.15;4.38;;;;;;;;;;5095720;28;20103;-70
2021/09/04 03:50:43;;;;;;;6.72;4.72;;;;;;;;;;5095349;28;20066;-70
2021/09/04 03:53:09;;;;;;;10.32;4.97;;;;;;;;;;5095706;28;20168;-70
2021/09/04 03:55:35;;;;;;;7.03;4.72;;;;;;;;;;5095495;28;20510;-70
2021/09/04 03:58:01;;;;;;;7.38;4.43;;;;;;;;;;5095355;28;20134;-81
2021/09/04 04:00:27;;;;;;;8.38;4.63;;;;;;;;;;5095297;28;20119;-70
2021/09/04 04:02:53;;;;;;;10.05;4.70;;;;;;;;;;5095386;28;20422;-71
2021/09/04 04:05:19;;;;;;;7.28;4.55;;;;;;;;;;5095509;28;20074;-71
2021/09/04 04:07:45;;;;;;;4.97;4.47;;;;;;;;;;5095567;28;20028;-70
2021/09/04 04:10:11;;;;;;;7.95;4.82;;;;;;;;;;5095194;28;20035;-70
2021/09/04 04:12:37;;;;;;;8.00;5.18;;;;;;;;;;5094927;28;20488;-70
2021/09/04 04:15:03;;;;;;;7.95;5.22;;;;;;;;;;5095001;28;20071;-73
2021/09/04 04:17:30;;;;;;;6.25;4.55;;;;;;;;;;5095373;28;20047;-70
2021/09/04 04:19:56;;;;;;;7.60;5.05;;;;;;;;;;5095155;28;20047;-70
2021/09/04 04:22:22;;;;;;;6.63;4.55;;;;;;;;;;5094649;28;20032;-76
2021/09/04 04:24:48;;;;;;;11.13;5.15;;;;;;;;;;5091148;28;20044;-71
2021/09/04 04:27:14;;;;;;;8.80;5.15;;;;;;;;;;5074642;28;20055;-70
2021/09/04 04:29:40;;;;;;;10.52;4.90;;;;;;;;;;5074537;28;20033;-71
2021/09/04 04:32:06;;;;;;;6.20;5.07;;;;;;;;;;5074625;28;20499;-71
2021/09/04 04:34:32;;;;;;;11.52;5.07;;;;;;;;;;5074735;28;20029;-70
2021/09/04 04:36:58;;;;;;;6.18;4.90;;;;;;;;;;5074523;28;20033;-70
2021/09/04 04:39:24;;;;;;;6.78;4.90;;;;;;;;;;5074868;28;20140;-81
2021/09/04 04:41:50;;;;;;;7.05;4.75;;;;;;;;;;5074261;28;20123;-70
2021/09/04 04:44:16;;;;;;;7.13;5.00;;;;;;;;;;5074341;28;20115;-70
2021/09/04 04:46:42;;;;;;;6.55;4.78;;;;;;;;;;5074227;28;20043;-79
2021/09/04 04:49:08;;;;;;;9.05;4.50;;;;;;;;;;5074308;28;20040;-71
2021/09/04 04:51:36;;;;;;;6.10;4.70;;;;;;;;;;5074062;28;20032;-70
2021/09/04 04:54:02;;;;;;;7.35;5.40;;;;;;;;;;5074189;28;20043;-71
2021/09/04 04:56:28;;;;;;;9.25;5.07;;;;;;;;;;5074144;28;20036;-76
2021/09/04 04:58:54;;;;;;;8.75;5.22;;;;;;;;;;5074093;28;20040;-69
2021/09/04 05:01:20;;;;;;;13.32;6.05;;;;;;;;;;5074158;28;20082;-70
2021/09/04 05:03:47;;;;;;;13.70;5.03;;;;;;;;;;5074193;28;20119;-70
2021/09/04 05:06:13;;;;;;;11.63;5.32;;;;;;;;;;5074102;28;20036;-71
2021/09/04 05:08:39;;;;;;;7.22;4.68;;;;;;;;;;5074048;28;20043;-70
2021/09/04 05:11:05;;;;;;;10.88;4.85;;;;;;;;;;5073636;28;20060;-80
2021/09/04 05:13:31;;;;;;;10.32;4.60;;;;;;;;;;5073884;28;20132;-70
2021/09/04 05:15:57;;;;;;;9.25;4.25;;;;;;;;;;5073769;28;20033;-70
2021/09/04 05:18:23;;;;;;;8.75;5.43;;;;;;;;;;5073709;28;20052;-79
2021/09/04 05:20:51;;;;;;;10.52;4.82;;;;;;;;;;5073879;28;20038;-70
2021/09/04 05:23:17;;;;;;;13.32;4.93;;;;;;;;;;5073419;28;20103;-81
2021/09/04 05:25:43;;;;;;;17.55;5.25;;;;;;;;;;5084894;28;20396;-80
2021/09/04 05:28:09;;;;;;;8.20;4.60;;;;;;;;;;5093704;28;20024;-69
2021/09/04 05:30:35;;;;;;;11.13;5.00;;;;;;;;;;5093738;28;20119;-70
2021/09/04 05:33:01;;;;;;;8.68;4.28;;;;;;;;;;5093169;28;20070;-70
2021/09/04 05:35:27;;;;;;;8.23;5.03;;;;;;;;;;5093266;28;20028;-80
2021/09/04 05:37:53;;;;;;;6.95;4.47;;;;;;;;;;5093486;28;20036;-81
2021/09/04 05:40:19;;;;;;;7.32;4.55;;;;;;;;;;5093570;28;20488;-70
2021/09/04 05:42:45;;;;;;;8.68;4.90;;;;;;;;;;5093511;28;20062;-71
2021/09/04 05:45:12;;;;;;;6.70;4.78;;;;;;;;;;5093205;28;20041;-71
2021/09/04 05:47:38;;;;;;;5.97;4.40;;;;;;;;;;5093472;28;20383;-71
2021/09/04 05:50:04;;;;;;;13.07;5.47;;;;;;;;;;5093458;28;20047;-72
2021/09/04 05:52:30;;;;;;;8.70;4.63;;;;;;;;;;5092665;28;20033;-71
2021/09/04 05:54:56;;;;;;;14.13;4.70;;;;;;;;;;5092998;28;20047;-71
2021/09/04 05:57:22;;;;;;;9.73;4.47;;;;;;;;;;5092917;28;20476;-81
2021/09/04 05:59:50;;;;;;;11.55;4.57;;;;;;;;;;5092783;28;20451;-71
2021/09/04 06:02:16;;;;;;;10.32;4.88;;;;;;;;;;5092987;28;20024;-71
2021/09/04 06:04:42;;;;;;;11.20;5.28;;;;;;;;;;5093234;28;20039;-74
2021/09/04 06:07:08;;;;;;;15.00;4.93;;;;;;;;;;5093389;28;20030;-71
2021/09/04 06:09:34;;;;;;;13.25;5.20;;;;;;;;;;5092966;28;20036;-71
2021/09/04 06:12:00;;;;;;;14.30;4.90;;;;;;;;;;5092996;28;20387;-80
2021/09/04 06:14:26;;;;;;;21.98;5.55;;;;;;;;;;5093198;28;20044;-81
2021/09/04 06:16:52;;;;;;;20.10;6.03;;;;;;;;;;5093106;28;20032;-71
2021/09/04 06:19:19;;;;;;;16.83;5.45;;;;;;;;;;5092764;28;20044;-81
2021/09/04 06:21:45;;;;;;;20.83;5.25;;;;;;;;;;5093035;28;20067;-71
2021/09/04 06:24:11;;;;;;;11.48;5.30;;;;;;;;;;5092644;28;20036;-78
2021/09/04 06:26:37;;;;;;;16.42;5.35;;;;;;;;;;5073834;28;20037;-71
2021/09/04 06:29:03;;;;;;;16.13;4.90;;;;;;;;;;5072410;28;20477;-71
2021/09/04 06:31:29;;;;;;;10.18;4.97;;;;;;;;;;5072368;28;20044;-71
2021/09/04 06:33:55;;;;;;;10.13;4.53;;;;;;;;;;5072607;28;20167;-82
2021/09/04 06:36:21;;;;;;;13.20;4.45;;;;;;;;;;5072714;28;20071;-70
2021/09/04 06:38:47;;;;;;;9.68;4.63;;;;;;;;;;5072354;28;20483;-70
2021/09/04 06:41:13;;;;;;;7.20;4.68;;;;;;;;;;5072915;28;20036;-84
2021/09/04 06:43:39;;;;;;;8.75;4.72;;;;;;;;;;5072497;28;20392;-82
2021/09/04 06:46:05;;;;;;;8.38;4.40;;;;;;;;;;5072402;28;20032;-71
2021/09/04 06:48:31;;;;;;;8.73;3.75;;;;;;;;;;5072499;28;20214;-80
2021/09/04 06:50:57;;;;;;;5.40;3.83;;;;;;;;;;5072404;28;20116;-71
2021/09/04 06:53:23;;;;;;;5.10;3.80;;;;;;;;;;5072439;28;20066;-82
2021/09/04 06:55:49;;;;;;;7.18;4.05;;;;;;;;;;5072372;28;20044;-70
2021/09/04 06:58:15;;;;;;;4.45;3.65;;;;;;;;;;5072323;28;20060;-71
2021/09/04 07:00:41;;;;;;;4.85;3.20;;;;;;;;;;5072295;28;20086;-70
2021/09/04 07:03:07;;;;;;;7.70;4.18;;;;;;;;;;5072518;28;20076;-70
2021/09/04 07:05:33;;;;;;;5.50;3.80;;;;;;;;;;5076388;28;20036;-81
2021/09/04 07:07:59;;;;;;;5.53;3.55;;;;;;;;;;5075959;28;20068;-70
2021/09/04 07:10:26;;;;;;;6.40;3.50;;;;;;;;;;5076214;28;20063;-71
2021/09/04 07:12:51;;;;;;;7.63;3.90;;;;;;;;;;5076293;28;20086;-83
2021/09/04 07:15:18;;;;;;;7.53;3.38;;;;;;;;;;5076177;28;20032;-71
2021/09/04 07:17:44;;;;;;;5.20;3.38;;;;;;;;;;5075694;28;20025;-70
2021/09/04 07:20:10;;;;;;;5.68;3.65;;;;;;;;;;5075381;28;20048;-70
2021/09/04 07:22:36;;;;;;;5.35;3.75;;;;;;;;;;5075787;28;20362;-70
2021/09/04 07:25:02;;;;;;;4.22;3.42;;;;;;;;;;5075751;28;20044;-71
2021/09/04 07:27:28;;;;;;;4.47;3.25;;;;;;;;;;5075635;28;20032;-82
2021/09/04 07:29:54;;;;;;;6.22;3.60;;;;;;;;;;5075497;28;20043;-72
2021/09/04 07:32:20;;;;;;;4.45;3.15;;;;;;;;;;5075568;28;20499;-82
2021/09/04 07:34:46;;;;;;;8.05;3.67;;;;;;;;;;5075356;28;20025;-70
2021/09/04 07:37:12;;;;;;;4.70;3.13;;;;;;;;;;5075680;28;20040;-79
2021/09/04 07:39:38;;;;;;;6.45;3.38;;;;;;;;;;5075278;28;20076;-71
2021/09/04 07:42:04;;;;;;;5.50;3.35;;;;;;;;;;5075431;28;20358;-70
2021/09/04 07:44:30;;;;;;;4.43;3.55;;;;;;;;;;5075316;28;20032;-69
2021/09/04 07:46:56;;;;;;;6.85;3.67;;;;;;;;;;5075085;28;20037;-69
2021/09/04 07:49:22;;;;;;;6.68;3.33;;;;;;;;;;5075510;28;20040;-82
2021/09/04 07:51:48;;;;;;;7.45;3.45;;;;;;;;;;5074952;28;20033;-82
2021/09/04 07:54:14;;;;;;;7.03;3.40;;;;;;;;;;5074789;28;20064;-69
2021/09/04 07:56:40;;;;;;;5.45;3.42;;;;;;;;;;5074323;28;20036;-70
2021/09/04 07:59:06;;;;;;;9.27;3.65;;;;;;;;;;5073898;28;20044;-68
2021/09/04 08:01:34;;;;;;;6.28;3.53;;;;;;;;;;5075504;28;20087;-78
2021/09/04 08:04:00;;;;;;;7.63;3.40;;;;;;;;;;5075376;28;20056;-69
2021/09/04 08:06:26;;;;;;;4.60;3.70;;;;;;;;;;5075000;28;20048;-69
2021/09/04 08:08:52;;;;;;;6.25;3.55;;;;;;;;;;5075276;28;20028;-69
2021/09/04 08:11:19;;;;;;;6.95;3.55;;;;;;;;;;5075432;28;20106;-69
2021/09/04 08:13:45;;;;;;;5.15;3.45;;;;;;;;;;5075009;28;20033;-69
2021/09/04 08:16:11;;;;;;;8.25;3.88;;;;;;;;;;5075158;28;20045;-69
2021/09/04 08:18:37;;;;;;;6.55;3.45;;;;;;;;;;5074784;28;20032;-68
2021/09/04 08:21:04;;;;;;;7.00;2.80;;;;;;;;;;5074888;28;20036;-81
2021/09/04 08:23:30;;;;;;;10.32;3.13;;;;;;;;;;5075170;28;20100;-68
2021/09/04 08:25:56;;;;;;;5.90;3.38;;;;;;;;;;5074516;28;20072;-69
2021/09/04 08:28:22;;;;;;;4.47;3.63;;;;;;;;;;5074924;28;20037;-77
2021/09/04 08:30:49;;;;;;;5.57;3.42;;;;;;;;;;5075031;28;20029;-69
2021/09/04 08:33:15;;;;;;;3.72;3.25;;;;;;;;;;5074830;28;20389;-69
2021/09/04 08:35:41;;;;;;;4.70;3.30;;;;;;;;;;5074805;28;20028;-68
2021/09/04 08:38:07;;;;;;;4.78;3.35;;;;;;;;;;5074640;28;20067;-69
2021/09/04 08:40:34;;;;;;;8.38;3.63;;;;;;;;;;5074854;28;20048;-69
2021/09/04 08:43:00;;;;;;;7.00;3.50;;;;;;;;;;5074650;28;20067;-69
2021/09/04 08:45:27;;;;;;;9.77;3.55;;;;;;;;;;5074580;28;20056;-69
2021/09/04 08:47:53;;;;;;;5.43;3.58;;;;;;;;;;5074194;28;20086;-69
2021/09/04 08:50:20;;;;;;;5.75;3.45;;;;;;;;;;5074541;28;20049;-81
2021/09/04 08:52:46;;;;;;;6.57;3.45;;;;;;;;;;5074300;28;20075;-84
2021/09/04 08:55:12;;;;;;;14.88;5.05;;;;;;;;;;5074269;28;20116;-69
2021/09/04 08:57:38;;;;;;;5.78;3.80;;;;;;;;;;5073745;28;20098;-70
2021/09/04 09:00:04;;;;;;;5.53;3.90;;;;;;;;;;5074045;28;20477;-69
2021/09/04 09:02:30;;;;;;;53.63;6.97;;;;;;;;;;5074078;28;20488;-69
2021/09/04 09:05:14;;;;;;;15.88;3.83;;;;;;;;;;5073986;28;20397;-69
2021/09/04 09:07:44;;;;;;;4.05;3.10;;;;;;;;;;5074081;28;20543;-70
2021/09/04 09:10:20;;;;;;;4.55;3.60;;;;;;;;;;5072391;28;20037;-69
2021/09/04 09:12:46;;;;;;;12.23;5.15;;;;;;;;;;5070905;28;20033;-69
2021/09/04 09:15:19;;;;;;;6.55;3.10;;;;;;;;;;5071676;28;20043;-69
2021/09/04 09:17:56;;;;;;;5.15;3.20;;;;;;;;;;5073832;28;20048;-69
2021/09/04 09:20:24;;;;;;;8.93;3.40;;;;;;;;;;5073925;28;20044;-77
2021/09/04 09:22:50;;;;;;;4.82;3.55;;;;;;;;;;5073904;28;20032;-69
2021/09/04 09:25:17;;;;;;;5.53;3.58;;;;;;;;;;5080799;28;20523;-69
2021/09/04 09:28:01;;;;;;;5.22;3.80;;;;;;;;;;5093285;28;20036;-82
2021/09/04 09:30:46;;;;;;;5.20;3.50;;;;;;;;;;5093719;28;20036;-68
2021/09/04 09:33:13;;;;;;;3.95;3.47;;;;;;;;;;5093679;28;20036;-82
2021/09/04 09:35:44;;;;;;;4.43;3.20;;;;;;;;;;5093480;28;20118;-69
2021/09/04 09:38:11;;;;;;;6.95;3.58;;;;;;;;;;5093738;28;20036;-69
2021/09/04 09:40:38;;;;;;;6.07;3.47;;;;;;;;;;5093739;28;20400;-69
2021/09/04 09:43:14;;;;;;;5.45;3.05;;;;;;;;;;5093797;28;20032;-69
2021/09/04 09:45:41;;;;;;;5.18;3.33;;;;;;;;;;5093429;28;20036;-69
2021/09/04 09:48:07;;;;;;;9.85;3.55;;;;;;;;;;5093241;28;20028;-69
2021/09/04 09:50:34;;;;;;;4.32;2.85;;;;;;;;;;5093409;28;20035;-83
2021/09/04 09:53:01;;;;;;;4.30;3.55;;;;;;;;;;5093614;28;20036;-82
2021/09/04 09:55:28;;;;;;;4.32;3.63;;;;;;;;;;5093453;28;20028;-83
2021/09/04 09:57:57;;;;;;;6.75;3.38;;;;;;;;;;5093412;28;20106;-69
2021/09/04 10:00:24;;;;;;;7.50;4.13;;;;;;;;;;5093218;28;20097;-83
2021/09/04 10:02:51;;;;;;;4.97;3.92;;;;;;;;;;5093336;28;20035;-83
2021/09/04 10:05:20;;;;;;;4.93;3.70;;;;;;;;;;5092914;28;20127;-69
2021/09/04 10:07:47;;;;;;;5.53;3.45;;;;;;;;;;5093289;28;20032;-69
2021/09/04 10:10:13;;;;;;;6.05;3.22;;;;;;;;;;5093280;28;20044;-82
2021/09/04 10:12:39;;;;;;;5.70;3.20;;;;;;;;;;5092928;28;20024;-69
2021/09/04 10:15:06;;;;;;;5.60;3.45;;;;;;;;;;5093147;28;20038;-69
2021/09/04 10:17:32;;;;;;;6.00;3.70;;;;;;;;;;5093231;28;20036;-71
2021/09/04 10:19:59;;;;;;;6.03;3.60;;;;;;;;;;5093297;28;20040;-83
2021/09/04 10:22:25;;;;;;;3.40;3.00;;;;;;;;;;5093065;28;20055;-76
2021/09/04 10:24:54;;;;;;;5.38;3.88;;;;;;;;;;5089110;28;20477;-69
2021/09/04 10:27:29;;;;;;;4.85;3.63;;;;;;;;;;5072906;28;20028;-83
2021/09/04 10:29:55;;;;;;;4.38;3.33;;;;;;;;;;5072599;28;20361;-84
2021/09/04 10:32:22;;;;;;;5.03;3.60;;;;;;;;;;5073167;28;20468;-69
2021/09/04 10:35:02;;;;;;;7.30;3.75;;;;;;;;;;5072972;28;20106;-83
2021/09/04 10:37:28;;;;;;;3.85;3.42;;;;;;;;;;5073795;28;20366;-69
2021/09/04 10:40:07;;;;;;;5.63;3.40;;;;;;;;;;5076632;28;20044;-69
2021/09/04 10:42:38;;;;;;;5.68;3.47;;;;;;;;;;5076723;28;20036;-83
2021/09/04 10:45:12;;;;;;;6.07;3.75;;;;;;;;;;5077023;28;20078;-69
2021/09/04 10:47:44;;;;;;;4.85;3.38;;;;;;;;;;5076867;28;20111;-69
2021/09/04 10:50:17;;;;;;;7.45;3.70;;;;;;;;;;5076731;28;20040;-69
2021/09/04 10:52:46;;;;;;;4.95;3.70;;;;;;;;;;5076525;28;20036;-69
2021/09/04 10:55:26;;;;;;;5.50;3.90;;;;;;;;;;5076802;28;20452;-81
2021/09/04 10:57:53;;;;;;;9.98;4.00;;;;;;;;;;5076892;28;20503;-72
2021/09/04 11:00:24;;;;;;;3.97;3.08;;;;;;;;;;5076641;28;20099;-83
2021/09/04 11:03:02;;;;;;;4.28;3.17;;;;;;;;;;5076010;28;20029;-81
2021/09/04 11:05:41;;;;;;;4.60;3.33;;;;;;;;;;5076343;28;20029;-69
2021/09/04 11:08:10;;;;;;;4.30;3.60;;;;;;;;;;5076724;28;20036;-69
2021/09/04 11:10:37;;;;;;;5.15;3.95;;;;;;;;;;5076251;28;20104;-83
2021/09/04 11:13:07;;;;;;;3.65;3.35;;;;;;;;;;5074959;28;20056;-78
2021/09/04 11:15:33;;;;;;;4.10;3.28;;;;;;;;;;5073272;28;20036;-69
2021/09/04 11:18:00;;;;;;;6.15;3.33;;;;;;;;;;5073541;28;20123;-82
2021/09/04 11:20:26;;;;;;;4.70;3.70;;;;;;;;;;5076029;28;20045;-82
2021/09/04 11:22:52;;;;;;;7.10;3.13;;;;;;;;;;5076214;28;20400;-69
2021/09/04 11:25:22;;;;;;;4.25;3.47;;;;;;;;;;5075928;28;20059;-69
2021/09/04 11:27:48;;;;;;;4.03;3.20;;;;;;;;;;5075697;28;20477;-72
2021/09/04 11:30:17;;;;;;;5.13;3.78;;;;;;;;;;5075672;28;20037;-78
2021/09/04 11:32:44;;;;;;;4.80;3.55;;;;;;;;;;5076080;28;20036;-82
2021/09/04 11:35:11;;;;;;;4.90;3.50;;;;;;;;;;5075822;28;20036;-69
2021/09/04 11:37:39;;;;;;;5.95;3.25;;;;;;;;;;5074774;28;20031;-69
2021/09/04 11:40:09;;;;;;;6.45;3.60;;;;;;;;;;5072731;28;20044;-69
2021/09/04 11:42:36;;;;;;;4.90;3.38;;;;;;;;;;5072890;28;20043;-71
2021/09/04 11:45:04;;;;;;;3.40;3.10;;;;;;;;;;5073966;28;20067;-68
2021/09/04 11:47:31;;;;;;;7.32;3.92;;;;;;;;;;5075585;28;20067;-69
2021/09/04 11:49:58;;;;;;;5.72;3.40;;;;;;;;;;5074444;28;20037;-83
2021/09/04 11:52:24;;;;;;;3.70;3.28;;;;;;;;;;5075417;28;20400;-69
2021/09/04 11:54:51;;;;;;;5.05;3.55;;;;;;;;;;5075119;28;20029;-83
2021/09/04 11:57:24;;;;;;;4.18;3.25;;;;;;;;;;5075517;28;20523;-69
2021/09/04 12:00:08;;;;;;;5.75;3.22;;;;;;;;;;5075417;28;20048;-69
2021/09/04 12:02:35;;;;;;;9.32;3.72;;;;;;;;;;5075244;28;20035;-83
2021/09/04 12:05:06;;;;;;;4.32;2.92;;;;;;;;;;5075278;28;20068;-82
2021/09/04 12:07:33;;;;;;;5.40;3.40;;;;;;;;;;5075110;28;20047;-69
2021/09/04 12:10:01;;;;;;;4.82;3.45;;;;;;;;;;5075631;28;20079;-68
2021/09/04 12:12:28;;;;;;;4.75;3.80;;;;;;;;;;5075215;28;20029;-69
2021/09/04 12:14:55;;;;;;;5.43;3.55;;;;;;;;;;5075375;28;20484;-71
2021/09/04 12:17:22;;;;;;;3.92;3.13;;;;;;;;;;5074893;28;20040;-69
2021/09/04 12:19:48;;;;;;;5.57;3.42;;;;;;;;;;5074990;28;20045;-80
2021/09/04 12:22:14;;;;;;;5.07;2.97;;;;;;;;;;5075256;28;20552;-71
2021/09/04 12:24:40;;;;;;;5.13;3.75;;;;;;;;;;5074543;28;20063;-83
2021/09/04 12:27:07;;;;;;;5.05;3.53;;;;;;;;;;5075342;28;20397;-81
2021/09/04 12:29:33;;;;;;;4.35;3.55;;;;;;;;;;5075040;28;20082;-70
2021/09/04 12:32:09;;;;;;;3.80;3.40;;;;;;;;;;5074704;28;20029;-83
2021/09/04 12:34:36;;;;;;;4.68;3.42;;;;;;;;;;5074699;28;20504;-69
2021/09/04 12:37:02;;;;;;;3.95;3.20;;;;;;;;;;5074801;28;20385;-69
2021/09/04 12:39:30;;;;;;;3.92;3.38;;;;;;;;;;5074403;28;20659;-69
2021/09/04 12:42:03;;;;;;;6.25;3.85;;;;;;;;;;5074599;28;20039;-83
2021/09/04 12:44:43;;;;;;;4.63;3.35;;;;;;;;;;5056507;28;20401;-78
2021/09/04 12:47:09;;;;;;;5.22;3.65;;;;;;;;;;5073925;28;20035;-68
2021/09/04 12:49:36;;;;;;;6.60;3.35;;;;;;;;;;5074070;28;20111;-69
2021/09/04 12:52:13;;;;;;;6.65;3.80;;;;;;;;;;5074423;28;20025;-71
2021/09/04 12:54:43;;;;;;;4.15;3.75;;;;;;;;;;5074098;28;20048;-69
2021/09/04 12:57:12;;;;;;;4.05;3.45;;;;;;;;;;5074179;28;20031;-69
2021/09/04 12:59:42;;;;;;;6.88;2.95;;;;;;;;;;5074243;28;20495;-68
2021/09/04 13:02:09;;;;;;;6.80;3.47;;;;;;;;;;5073745;28;20032;-82
2021/09/04 13:04:35;;;;;;;4.20;3.50;;;;;;;;;;5074408;28;20056;-82
2021/09/04 13:07:01;;;;;;;3.80;3.25;;;;;;;;;;5074081;28;20037;-70
2021/09/04 13:09:27;;;;;;;6.00;3.47;;;;;;;;;;5073725;28;20041;-69
2021/09/04 13:11:53;;;;;;;5.13;3.65;;;;;;;;;;5073944;28;20024;-82
2021/09/04 13:14:19;;;;;;;4.30;3.40;;;;;;;;;;5074067;28;20445;-70
2021/09/04 13:16:45;;;;;;;5.07;3.80;;;;;;;;;;5074029;28;20036;-69
2021/09/04 13:19:11;;;;;;;6.38;3.50;;;;;;;;;;5073900;28;20393;-69
2021/09/04 13:21:37;;;;;;;6.47;3.70;;;;;;;;;;5073747;28;20041;-69
2021/09/04 13:24:03;;;;;;;5.93;3.80;;;;;;;;;;5073676;28;20035;-69
2021/09/04 13:26:31;;;;;;;4.07;3.58;;;;;;;;;;5091243;28;20118;-69
